Wetterdaten: Woche 04.02.19 - 10.02.19 (KW6)
Datum Zeit Temp. Aussen Temp. o. S. +5cm Feuchte Auss Luftdruck Regen Sonnenschein Regendauer Solar Windben Empfang
04.02.2019 00:00 0,4 C -0,4 C -1,1 C 94 % 1024,4 hPa 0,0 l/m 0,00 h 0,00 h 0 W/m 0,2 km/h (0 Bft) 96,94 %
04.02.2019 01:00 0,2 C -0,6 C -1,1 C 95 % 1024,6 hPa 0,0 l/m 0,00 h 0,00 h 0 W/m 0,7 km/h (0 Bft) 97,14 %
04.02.2019 02:00 -0,2 C -1,1 C -1,7 C 95 % 1024,8 hPa 0,0 l/m 0,00 h 0,00 h 0 W/m 1,6 km/h (1 Bft) 98,43 %
04.02.2019 03:00 -0,5 C -1,2 C -1,8 C 96 % 1024,9 hPa 0,0 l/m 0,00 h 0,00 h 0 W/m 2,2 km/h (1 Bft) 96,87 %
04.02.2019 04:00 -0,8 C -1,7 C -2,2 C 96 % 1025,0 hPa 0,0 l/m 0,00 h 0,00 h 0 W/m 0,3 km/h (0 Bft) 96,65 %
04.02.2019 05:00 -1,0 C -1,4 C -2,2 C 96 % 1025,0 hPa 0,0 l/m 0,00 h 0,00 h 0 W/m 5,8 km/h (1 Bft) 99,27 %
04.02.2019 06:00 -1,2 C -1,7 C -2,2 C 96 % 1025,0 hPa 0,0 l/m 0,00 h 0,00 h 0 W/m 8,7 km/h (2 Bft) 97,18 %
04.02.2019 07:00 -1,3 C -1,7 C -2,2 C 96 % 1024,9 hPa 0,0 l/m 0,00 h 0,00 h 5 W/m 13,7 km/h (3 Bft) 95,42 %
04.02.2019 08:00 -1,1 C -1,3 C -1,9 C 96 % 1024,8 hPa 0,0 l/m 0,00 h 0,00 h 19 W/m 15,8 km/h (3 Bft) 98,32 %
04.02.2019 09:00 -0,5 C -0,0 C -0,9 C 96 % 1024,6 hPa 0,0 l/m 0,30 h 0,00 h 80 W/m 18,0 km/h (3 Bft) 95,69 %
04.02.2019 10:00 0,3 C 1,0 C 0,2 C 94 % 1024,4 hPa 0,2 l/m 0,13 h 0,00 h 123 W/m 19,7 km/h (3 Bft) 96,95 %
04.02.2019 11:00 1,3 C 2,7 C 1,3 C 92 % 1024,2 hPa 0,0 l/m 1,00 h 0,00 h 197 W/m 20,7 km/h (4 Bft) 98,15 %
04.02.2019 12:00 3,0 C 5,6 C 3,6 C 87 % 1023,7 hPa 0,0 l/m 1,00 h 0,00 h 298 W/m 20,4 km/h (4 Bft) 95,63 %
04.02.2019 13:00 5,3 C 7,1 C 5,3 C 74 % 1023,3 hPa 0,0 l/m 1,00 h 0,00 h 272 W/m 23,9 km/h (4 Bft) 97,97 %
04.02.2019 14:00 5,2 C 5,1 C 4,5 C 69 % 1023,0 hPa 0,0 l/m 0,07 h 0,00 h 111 W/m 23,0 km/h (4 Bft) 97,79 %
04.02.2019 15:00 4,8 C 4,4 C 3,9 C 70 % 1022,7 hPa 0,0 l/m 0,00 h 0,00 h 52 W/m 9,2 km/h (2 Bft) 97,21 %
04.02.2019 16:00 4,5 C 3,9 C 3,3 C 71 % 1022,4 hPa 0,0 l/m 0,00 h 0,00 h 18 W/m 13,5 km/h (3 Bft) 96,92 %
04.02.2019 17:00 4,2 C 3,9 C 3,1 C 71 % 1022,2 hPa 0,0 l/m 0,00 h 0,07 h 5 W/m 23,4 km/h (4 Bft) 97,92 %
04.02.2019 18:00 4,2 C 3,7 C 3,1 C 69 % 1022,0 hPa 0,0 l/m 0,00 h 0,00 h 0 W/m 18,7 km/h (3 Bft) 98,12 %
04.02.2019 19:00 3,9 C 3,3 C 2,8 C 72 % 1022,0 hPa 0,0 l/m 0,00 h 0,00 h 0 W/m 19,5 km/h (3 Bft) 96,87 %
04.02.2019 20:00 3,8 C 3,3 C 2,6 C 74 % 1022,1 hPa 0,0 l/m 0,00 h 0,00 h 0 W/m 12,6 km/h (3 Bft) 97,86 %
04.02.2019 21:00 3,6 C 3,3 C 2,3 C 75 % 1022,4 hPa 0,0 l/m 0,00 h 0,03 h 0 W/m 10,9 km/h (2 Bft) 97,94 %
04.02.2019 22:00 3,6 C 2,8 C 2,3 C 77 % 1022,7 hPa 0,0 l/m 0,00 h 0,43 h 0 W/m 18,6 km/h (3 Bft) 98,15 %
04.02.2019 23:00 3,1 C 1,5 C 1,2 C 84 % 1022,9 hPa 0,2 l/m 0,00 h 0,73 h 0 W/m 13,7 km/h (3 Bft) 96,44 %
05.02.2019 00:00 2,6 C 1,3 C 1,1 C 90 % 1022,9 hPa 0,0 l/m 0,00 h 0,10 h 0 W/m 13,1 km/h (3 Bft) 98,09 %
05.02.2019 01:00 2,6 C 1,8 C 1,1 C 91 % 1023,0 hPa 0,2 l/m 0,00 h 0,03 h 0 W/m 8,8 km/h (2 Bft) 97,30 %
05.02.2019 02:00 2,7 C 1,7 C 1,1 C 92 % 1023,2 hPa 0,2 l/m 0,00 h 0,30 h 0 W/m 9,8 km/h (2 Bft) 97,72 %
05.02.2019 03:00 2,6 C 1,7 C 1,1 C 94 % 1023,4 hPa 0,0 l/m 0,00 h 0,23 h 0 W/m 8,8 km/h (2 Bft) 97,65 %
05.02.2019 04:00 2,4 C 1,7 C 1,1 C 95 % 1023,5 hPa 0,2 l/m 0,00 h 0,37 h 0 W/m 9,6 km/h (2 Bft) 96,37 %
05.02.2019 05:00 2,3 C 1,7 C 1,1 C 95 % 1023,6 hPa 0,0 l/m 0,00 h 0,07 h 0 W/m 10,0 km/h (2 Bft) 98,91 %
05.02.2019 06:00 2,3 C 1,7 C 1,1 C 95 % 1023,9 hPa 0,0 l/m 0,00 h 0,00 h 0 W/m 8,2 km/h (2 Bft) 98,45 %
05.02.2019 07:00 2,4 C 1,7 C 1,1 C 95 % 1024,2 hPa 0,0 l/m 0,00 h 0,00 h 0 W/m 6,4 km/h (2 Bft) 94,45 %
05.02.2019 08:00 2,5 C 2,0 C 1,3 C 95 % 1024,6 hPa 0,0 l/m 0,00 h 0,00 h 10 W/m 5,4 km/h (1 Bft) 98,93 %
05.02.2019 09:00 2,7 C 2,7 C 1,7 C 95 % 1025,2 hPa 0,0 l/m 0,00 h 0,00 h 29 W/m 5,9 km/h (2 Bft) 98,08 %
05.02.2019 10:00 3,1 C 3,3 C 2,3 C 95 % 1025,6 hPa 0,0 l/m 0,00 h 0,00 h 61 W/m 8,7 km/h (2 Bft) 95,73 %
05.02.2019 11:00 3,7 C 3,9 C 2,8 C 95 % 1026,0 hPa 0,0 l/m 0,00 h 0,00 h 64 W/m 5,8 km/h (2 Bft) 98,64 %
05.02.2019 12:00 4,2 C 4,4 C 3,7 C 94 % 1025,8 hPa 0,0 l/m 0,00 h 0,00 h 93 W/m 7,3 km/h (2 Bft) 97,41 %
05.02.2019 13:00 4,6 C 4,6 C 4,0 C 93 % 1025,8 hPa 0,0 l/m 0,00 h 0,00 h 70 W/m 3,6 km/h (1 Bft) 97,01 %
05.02.2019 14:00 5,0 C 5,3 C 4,6 C 92 % 1025,5 hPa 0,0 l/m 0,00 h 0,00 h 97 W/m 2,7 km/h (1 Bft) 96,58 %
05.02.2019 15:00 5,4 C 5,6 C 5,0 C 90 % 1025,7 hPa 0,0 l/m 0,03 h 0,00 h 92 W/m 5,8 km/h (2 Bft) 99,15 %
05.02.2019 16:00 5,6 C 5,4 C 4,6 C 89 % 1025,5 hPa 0,0 l/m 0,33 h 0,00 h 62 W/m 7,9 km/h (2 Bft) 95,82 %
05.02.2019 17:00 5,1 C 4,3 C 3,6 C 89 % 1025,5 hPa 0,0 l/m 0,00 h 0,00 h 10 W/m 5,6 km/h (1 Bft) 96,01 %
05.02.2019 18:00 4,7 C 4,1 C 3,4 C 91 % 1025,6 hPa 0,0 l/m 0,00 h 0,00 h 0 W/m 4,1 km/h (1 Bft) 99,78 %
05.02.2019 19:00 4,7 C 4,3 C 3,7 C 92 % 1025,2 hPa 0,0 l/m 0,00 h 0,00 h 0 W/m 4,6 km/h (1 Bft) 96,23 %
05.02.2019 20:00 4,0 C 3,0 C 2,3 C 93 % 1024,9 hPa 0,0 l/m 0,00 h 0,00 h 0 W/m 9,3 km/h (2 Bft) 96,51 %
05.02.2019 21:00 3,3 C 2,4 C 1,7 C 94 % 1024,8 hPa 0,0 l/m 0,00 h 0,00 h 0 W/m 7,0 km/h (2 Bft) 99,03 %
05.02.2019 22:00 2,6 C 1,7 C 0,9 C 94 % 1024,9 hPa 0,0 l/m 0,00 h 0,00 h 0 W/m 3,5 km/h (1 Bft) 96,09 %
05.02.2019 23:00 2,1 C 1,3 C 0,2 C 95 % 1024,7 hPa 0,0 l/m 0,00 h 0,00 h 0 W/m 0,9 km/h (0 Bft) 98,58 %
06.02.2019 00:00 1,7 C 1,2 C 0,4 C 95 % 1024,6 hPa 0,0 l/m 0,00 h 0,00 h 0 W/m 1,3 km/h (1 Bft) 96,54 %
06.02.2019 01:00 1,4 C 1,1 C 0,3 C 95 % 1024,3 hPa 0,0 l/m 0,00 h 0,00 h 0 W/m 7,9 km/h (2 Bft) 97,34 %
06.02.2019 02:00 1,4 C 1,1 C 0,4 C 95 % 1024,0 hPa 0,0 l/m 0,00 h 0,00 h 0 W/m 13,1 km/h (3 Bft) 99,50 %
06.02.2019 03:00 1,5 C 1,1 C 0,6 C 94 % 1023,3 hPa 0,0 l/m 0,00 h 0,00 h 0 W/m 20,1 km/h (4 Bft) 94,52 %
06.02.2019 04:00 1,6 C 1,1 C 0,6 C 92 % 1022,8 hPa 0,0 l/m 0,00 h 0,00 h 0 W/m 18,4 km/h (3 Bft) 98,42 %
06.02.2019 05:00 1,6 C 1,1 C 0,6 C 91 % 1022,2 hPa 0,0 l/m 0,00 h 0,00 h 0 W/m 20,7 km/h (4 Bft) 98,72 %
06.02.2019 06:00 1,5 C 1,1 C 0,4 C 90 % 1021,7 hPa 0,0 l/m 0,00 h 0,00 h 0 W/m 18,8 km/h (3 Bft) 94,58 %
06.02.2019 07:00 1,3 C 1,1 C 0,2 C 90 % 1021,4 hPa 0,0 l/m 0,00 h 0,00 h 0 W/m 17,1 km/h (3 Bft) 98,36 %
06.02.2019 08:00 1,5 C 1,3 C 0,7 C 89 % 1021,3 hPa 0,0 l/m 0,00 h 0,00 h 22 W/m 15,7 km/h (3 Bft) 98,37 %
06.02.2019 09:00 2,1 C 2,1 C 1,5 C 87 % 1021,5 hPa 0,0 l/m 0,00 h 0,00 h 57 W/m 16,4 km/h (3 Bft) 95,57 %
06.02.2019 10:00 3,0 C 3,8 C 2,9 C 84 % 1021,5 hPa 0,0 l/m 0,57 h 0,00 h 148 W/m 16,4 km/h (3 Bft) 97,87 %
06.02.2019 11:00 4,1 C 4,4 C 3,8 C 81 % 1021,4 hPa 0,0 l/m 0,00 h 0,00 h 117 W/m 15,8 km/h (3 Bft) 97,72 %
06.02.2019 12:00 5,3 C 5,9 C 5,4 C 79 % 1020,7 hPa 0,0 l/m 0,00 h 0,00 h 156 W/m 16,8 km/h (3 Bft) 96,46 %
06.02.2019 13:00 6,5 C 7,0 C 6,6 C 75 % 1020,0 hPa 0,0 l/m 0,13 h 0,00 h 155 W/m 16,8 km/h (3 Bft) 96,39 %
06.02.2019 14:00 7,8 C 8,4 C 7,9 C 74 % 1019,2 hPa 0,0 l/m 0,03 h 0,00 h 132 W/m 12,5 km/h (3 Bft) 99,00 %
06.02.2019 15:00 9,1 C 9,2 C 8,6 C 72 % 1018,4 hPa 0,0 l/m 0,13 h 0,00 h 87 W/m 11,2 km/h (2 Bft) 96,73 %
06.02.2019 16:00 9,3 C 8,8 C 8,2 C 73 % 1017,8 hPa 0,0 l/m 0,00 h 0,00 h 33 W/m 5,8 km/h (2 Bft) 95,88 %
06.02.2019 17:00 9,1 C 8,3 C 7,6 C 77 % 1017,3 hPa 0,0 l/m 0,00 h 0,00 h 7 W/m 4,5 km/h (1 Bft) 99,05 %
06.02.2019 18:00 8,8 C 8,0 C 7,4 C 82 % 1017,0 hPa 0,0 l/m 0,00 h 0,00 h 0 W/m 8,5 km/h (2 Bft) 96,72 %
06.02.2019 19:00 7,9 C 7,0 C 6,4 C 83 % 1016,8 hPa 0,0 l/m 0,00 h 0,03 h 0 W/m 12,4 km/h (3 Bft) 96,06 %
06.02.2019 20:00 7,1 C 6,4 C 5,8 C 86 % 1016,3 hPa 0,0 l/m 0,00 h 0,07 h 0 W/m 16,1 km/h (3 Bft) 99,65 %
06.02.2019 21:00 6,3 C 5,6 C 4,9 C 88 % 1015,5 hPa 0,0 l/m 0,00 h 0,17 h 0 W/m 17,9 km/h (3 Bft) 96,93 %
06.02.2019 22:00 6,0 C 5,6 C 4,6 C 91 % 1014,9 hPa 0,0 l/m 0,00 h 0,07 h 0 W/m 17,5 km/h (3 Bft) 97,24 %
06.02.2019 23:00 5,9 C 5,0 C 4,4 C 92 % 1014,3 hPa 0,2 l/m 0,00 h 0,63 h 0 W/m 18,6 km/h (3 Bft) 98,22 %
07.02.2019 00:00 5,8 C 4,4 C 3,9 C 93 % 1013,5 hPa 0,4 l/m 0,00 h 0,90 h 0 W/m 15,4 km/h (3 Bft) 92,96 %
07.02.2019 01:00 5,6 C 4,1 C 3,6 C 92 % 1012,4 hPa 1,2 l/m 0,00 h 1,00 h 0 W/m 14,3 km/h (3 Bft) 99,00 %
07.02.2019 02:00 4,8 C 3,3 C 2,8 C 92 % 1011,2 hPa 0,6 l/m 0,00 h 1,00 h 0 W/m 19,8 km/h (4 Bft) 95,94 %
07.02.2019 03:00 4,2 C 2,8 C 2,4 C 93 % 1010,1 hPa 0,8 l/m 0,00 h 0,87 h 0 W/m 26,8 km/h (4 Bft) 96,94 %
07.02.2019 04:00 3,9 C 2,8 C 2,2 C 94 % 1009,0 hPa 0,0 l/m 0,00 h 0,33 h 0 W/m 25,9 km/h (4 Bft) 98,89 %
07.02.2019 05:00 4,0 C 3,0 C 2,2 C 93 % 1007,9 hPa 0,2 l/m 0,00 h 0,73 h 0 W/m 21,9 km/h (4 Bft) 95,49 %
07.02.2019 06:00 4,4 C 3,3 C 2,9 C 92 % 1007,0 hPa 0,0 l/m 0,00 h 0,87 h 0 W/m 24,6 km/h (4 Bft) 97,51 %
07.02.2019 07:00 4,9 C 3,9 C 3,4 C 92 % 1006,3 hPa 0,4 l/m 0,00 h 0,33 h 0 W/m 23,7 km/h (4 Bft) 98,95 %
07.02.2019 08:00 5,1 C 4,4 C 3,7 C 94 % 1006,1 hPa 0,2 l/m 0,00 h 0,10 h 7 W/m 13,4 km/h (3 Bft) 96,19 %
07.02.2019 09:00 7,4 C 6,9 C 6,3 C 97 % 1006,6 hPa 0,0 l/m 0,00 h 0,27 h 36 W/m 23,4 km/h (4 Bft) 98,15 %
07.02.2019 10:00 8,3 C 9,2 C 6,5 C 87 % 1007,1 hPa 0,0 l/m 0,50 h 0,00 h 187 W/m 18,3 km/h (3 Bft) 97,79 %
07.02.2019 11:00 8,8 C 9,9 C 7,5 C 82 % 1007,5 hPa 0,2 l/m 0,83 h 0,00 h 201 W/m 20,8 km/h (4 Bft) 96,98 %
07.02.2019 12:00 9,4 C 11,5 C 9,3 C 78 % 1007,3 hPa 0,0 l/m 0,63 h 0,00 h 272 W/m 25,0 km/h (4 Bft) 93,89 %
07.02.2019 13:00 9,6 C 11,9 C 9,1 C 74 % 1007,0 hPa 0,0 l/m 0,80 h 0,00 h 302 W/m 25,1 km/h (4 Bft) 96,73 %
07.02.2019 14:00 10,2 C 12,3 C 9,7 C 71 % 1006,9 hPa 0,0 l/m 0,77 h 0,00 h 304 W/m 31,0 km/h (5 Bft) 98,65 %
07.02.2019 15:00 9,8 C 10,1 C 8,6 C 71 % 1007,2 hPa 0,0 l/m 0,30 h 0,00 h 130 W/m 27,2 km/h (4 Bft) 95,10 %
07.02.2019 16:00 9,3 C 8,4 C 7,8 C 73 % 1007,6 hPa 0,0 l/m 0,07 h 0,30 h 34 W/m 25,7 km/h (4 Bft) 99,07 %
07.02.2019 17:00 8,2 C 6,8 C 6,0 C 80 % 1007,8 hPa 0,0 l/m 0,00 h 0,10 h 10 W/m 20,9 km/h (4 Bft) 98,51 %
07.02.2019 18:00 7,8 C 7,1 C 6,4 C 79 % 1008,4 hPa 0,0 l/m 0,00 h 0,00 h 0 W/m 16,9 km/h (3 Bft) 94,03 %
07.02.2019 19:00 7,6 C 6,9 C 6,3 C 80 % 1009,1 hPa 0,0 l/m 0,00 h 0,00 h 0 W/m 21,1 km/h (4 Bft) 99,43 %
07.02.2019 20:00 7,0 C 6,2 C 5,6 C 83 % 1009,6 hPa 0,0 l/m 0,00 h 0,00 h 0 W/m 22,8 km/h (4 Bft) 97,51 %
07.02.2019 21:00 6,8 C 6,2 C 5,6 C 84 % 1009,9 hPa 0,0 l/m 0,00 h 0,03 h 0 W/m 18,9 km/h (3 Bft) 96,65 %
07.02.2019 22:00 6,8 C 6,1 C 5,6 C 84 % 1010,6 hPa 0,0 l/m 0,00 h 0,00 h 0 W/m 16,7 km/h (3 Bft) 98,36 %
07.02.2019 23:00 6,7 C 6,1 C 5,5 C 84 % 1011,3 hPa 0,0 l/m 0,00 h 0,00 h 0 W/m 17,3 km/h (3 Bft) 96,51 %
08.02.2019 00:00 6,6 C 6,1 C 5,5 C 85 % 1011,7 hPa 0,0 l/m 0,00 h 0,00 h 0 W/m 17,6 km/h (3 Bft) 98,14 %
08.02.2019 01:00 6,1 C 5,3 C 4,7 C 86 % 1011,6 hPa 0,0 l/m 0,00 h 0,00 h 0 W/m 16,2 km/h (3 Bft) 97,72 %
08.02.2019 02:00 5,6 C 5,0 C 4,3 C 87 % 1011,5 hPa 0,0 l/m 0,00 h 0,00 h 0 W/m 13,9 km/h (3 Bft) 95,09 %
08.02.2019 03:00 5,7 C 5,0 C 4,4 C 88 % 1011,4 hPa 0,0 l/m 0,00 h 0,07 h 0 W/m 17,2 km/h (3 Bft) 99,65 %
08.02.2019 04:00 5,9 C 5,5 C 4,8 C 89 % 1011,1 hPa 0,0 l/m 0,00 h 0,00 h 0 W/m 15,0 km/h (3 Bft) 98,22 %
08.02.2019 05:00 6,3 C 5,4 C 4,8 C 89 % 1010,9 hPa 0,0 l/m 0,00 h 0,60 h 0 W/m 16,8 km/h (3 Bft) 96,01 %
08.02.2019 06:00 6,4 C 5,6 C 4,8 C 91 % 1010,6 hPa 0,0 l/m 0,00 h 0,67 h 0 W/m 17,3 km/h (3 Bft) 99,86 %
08.02.2019 07:00 6,6 C 6,1 C 5,5 C 90 % 1010,3 hPa 0,0 l/m 0,00 h 0,27 h 0 W/m 21,3 km/h (4 Bft) 97,08 %
08.02.2019 08:00 6,8 C 6,5 C 5,8 C 88 % 1010,2 hPa 0,0 l/m 0,00 h 0,00 h 21 W/m 19,2 km/h (3 Bft) 95,89 %
08.02.2019 09:00 7,1 C 6,9 C 6,4 C 87 % 1010,3 hPa 0,0 l/m 0,00 h 0,00 h 46 W/m 21,0 km/h (4 Bft) 99,11 %
08.02.2019 10:00 7,7 C 7,5 C 7,1 C 86 % 1010,0 hPa 0,0 l/m 0,00 h 0,00 h 78 W/m 22,1 km/h (4 Bft) 97,27 %
08.02.2019 11:00 8,5 C 8,5 C 8,0 C 84 % 1009,4 hPa 0,0 l/m 0,00 h 0,00 h 101 W/m 22,9 km/h (4 Bft) 96,22 %
08.02.2019 12:00 9,3 C 9,2 C 8,8 C 82 % 1008,7 hPa 0,0 l/m 0,00 h 0,03 h 89 W/m 26,1 km/h (4 Bft) 96,58 %
08.02.2019 13:00 9,8 C 9,6 C 9,2 C 80 % 1008,0 hPa 0,0 l/m 0,00 h 0,07 h 83 W/m 25,8 km/h (4 Bft) 98,79 %
08.02.2019 14:00 10,0 C 9,6 C 9,3 C 78 % 1007,2 hPa 0,2 l/m 0,00 h 0,00 h 78 W/m 36,4 km/h (5 Bft) 96,51 %
08.02.2019 15:00 10,0 C 9,5 C 9,1 C 78 % 1006,3 hPa 0,0 l/m 0,00 h 0,00 h 49 W/m 27,2 km/h (4 Bft) 97,15 %
08.02.2019 16:00 9,8 C 9,4 C 8,9 C 78 % 1005,7 hPa 0,0 l/m 0,00 h 0,00 h 22 W/m 30,2 km/h (5 Bft) 99,07 %
08.02.2019 17:00 9,6 C 8,9 C 8,3 C 79 % 1004,9 hPa 0,0 l/m 0,00 h 0,00 h 7 W/m 26,3 km/h (4 Bft) 96,72 %
08.02.2019 18:00 9,4 C 8,9 C 8,3 C 79 % 1004,2 hPa 0,0 l/m 0,00 h 0,00 h 0 W/m 26,5 km/h (4 Bft) 96,42 %
08.02.2019 19:00 9,4 C 8,9 C 8,3 C 80 % 1003,6 hPa 0,0 l/m 0,00 h 0,00 h 0 W/m 27,8 km/h (4 Bft) 98,23 %
08.02.2019 20:00 9,4 C 8,9 C 8,3 C 80 % 1002,5 hPa 0,0 l/m 0,00 h 0,00 h 0 W/m 28,4 km/h (4 Bft) 97,00 %
08.02.2019 21:00 9,4 C 8,9 C 8,3 C 80 % 1001,4 hPa 0,0 l/m 0,00 h 0,00 h 0 W/m 30,2 km/h (5 Bft) 98,01 %
08.02.2019 22:00 9,2 C 8,2 C 7,5 C 80 % 1000,7 hPa 0,0 l/m 0,00 h 0,33 h 0 W/m 27,2 km/h (4 Bft) 96,91 %
08.02.2019 23:00 8,6 C 6,6 C 6,0 C 84 % 1000,1 hPa 0,6 l/m 0,00 h 1,00 h 0 W/m 24,9 km/h (4 Bft) 97,68 %
09.02.2019 00:00 8,1 C 6,1 C 5,6 C 89 % 999,3 hPa 0,8 l/m 0,00 h 1,00 h 0 W/m 19,7 km/h (3 Bft) 98,95 %
09.02.2019 01:00 7,8 C 6,1 C 5,6 C 91 % 998,6 hPa 1,0 l/m 0,00 h 0,97 h 0 W/m 27,5 km/h (4 Bft) 95,00 %
09.02.2019 02:00 7,8 C 6,4 C 5,8 C 92 % 998,2 hPa 0,0 l/m 0,00 h 0,90 h 0 W/m 26,0 km/h (4 Bft) 98,43 %
09.02.2019 03:00 8,2 C 7,5 C 6,3 C 89 % 998,1 hPa 0,0 l/m 0,00 h 0,43 h 0 W/m 32,2 km/h (5 Bft) 99,13 %
09.02.2019 04:00 8,0 C 7,3 C 6,6 C 86 % 998,3 hPa 0,0 l/m 0,00 h 0,20 h 0 W/m 24,9 km/h (4 Bft) 95,51 %
09.02.2019 05:00 7,8 C 7,2 C 6,3 C 86 % 999,0 hPa 0,0 l/m 0,00 h 0,00 h 0 W/m 21,4 km/h (4 Bft) 98,49 %
09.02.2019 06:00 7,7 C 7,2 C 6,6 C 86 % 999,7 hPa 0,0 l/m 0,00 h 0,00 h 0 W/m 23,1 km/h (4 Bft) 98,22 %
09.02.2019 07:00 7,3 C 6,0 C 5,3 C 88 % 1000,6 hPa 1,4 l/m 0,00 h 0,43 h 0 W/m 25,3 km/h (4 Bft) 96,71 %
09.02.2019 08:00 6,5 C 5,0 C 4,5 C 91 % 1001,6 hPa 0,8 l/m 0,00 h 1,00 h 13 W/m 23,7 km/h (4 Bft) 96,96 %
09.02.2019 09:00 7,2 C 6,9 C 5,2 C 89 % 1002,2 hPa 0,0 l/m 0,30 h 0,83 h 86 W/m 29,1 km/h (5 Bft) 96,52 %
09.02.2019 10:00 8,7 C 9,8 C 6,9 C 80 % 1002,6 hPa 0,0 l/m 0,73 h 0,00 h 213 W/m 36,6 km/h (5 Bft) 97,65 %
09.02.2019 11:00 9,2 C 9,6 C 8,3 C 77 % 1003,1 hPa 0,0 l/m 0,37 h 0,37 h 168 W/m 37,6 km/h (5 Bft) 97,87 %
09.02.2019 12:00 9,7 C 10,7 C 9,4 C 75 % 1003,2 hPa 0,0 l/m 0,40 h 0,03 h 188 W/m 38,7 km/h (5 Bft) 96,99 %
09.02.2019 13:00 9,5 C 9,9 C 8,7 C 78 % 1003,3 hPa 0,0 l/m 0,50 h 0,43 h 211 W/m 38,1 km/h (5 Bft) 98,00 %
09.02.2019 14:00 9,8 C 9,5 C 8,6 C 75 % 1003,4 hPa 0,0 l/m 0,10 h 0,27 h 147 W/m 37,7 km/h (5 Bft) 96,95 %
09.02.2019 15:00 7,8 C 6,5 C 5,7 C 88 % 1004,4 hPa 1,0 l/m 0,23 h 0,40 h 96 W/m 22,8 km/h (4 Bft) 97,30 %
09.02.2019 16:00 8,2 C 7,0 C 6,3 C 85 % 1004,4 hPa 0,0 l/m 0,00 h 0,00 h 53 W/m 25,3 km/h (4 Bft) 97,87 %
09.02.2019 17:00 8,8 C 7,9 C 6,7 C 79 % 1005,0 hPa 0,0 l/m 0,00 h 0,33 h 15 W/m 21,3 km/h (4 Bft) 97,15 %
09.02.2019 18:00 8,3 C 7,6 C 6,7 C 81 % 1005,6 hPa 0,0 l/m 0,00 h 0,17 h 0 W/m 15,8 km/h (3 Bft) 95,77 %
09.02.2019 19:00 8,2 C 7,8 C 6,8 C 80 % 1005,9 hPa 0,0 l/m 0,00 h 0,07 h 0 W/m 20,0 km/h (4 Bft) 98,69 %
09.02.2019 20:00 7,8 C 6,3 C 5,4 C 84 % 1006,0 hPa 0,2 l/m 0,00 h 0,17 h 0 W/m 15,5 km/h (3 Bft) 97,38 %
09.02.2019 21:00 7,8 C 7,1 C 6,3 C 84 % 1005,7 hPa 0,0 l/m 0,00 h 0,00 h 0 W/m 20,0 km/h (4 Bft) 96,54 %
09.02.2019 22:00 8,1 C 7,7 C 7,0 C 82 % 1005,7 hPa 0,0 l/m 0,00 h 0,00 h 0 W/m 19,7 km/h (3 Bft) 97,97 %
09.02.2019 23:00 8,5 C 7,9 C 7,2 C 82 % 1005,4 hPa 0,0 l/m 0,00 h 0,00 h 0 W/m 22,6 km/h (4 Bft) 97,23 %
10.02.2019 00:00 8,6 C 7,8 C 7,2 C 82 % 1004,5 hPa 0,0 l/m 0,00 h 0,00 h 0 W/m 20,2 km/h (4 Bft) 98,17 %
10.02.2019 01:00 8,6 C 7,8 C 7,2 C 83 % 1003,3 hPa 0,0 l/m 0,00 h 0,03 h 0 W/m 16,2 km/h (3 Bft) 96,70 %
10.02.2019 02:00 8,4 C 7,3 C 6,6 C 85 % 1001,8 hPa 0,0 l/m 0,00 h 0,67 h 0 W/m 12,5 km/h (3 Bft) 97,29 %
10.02.2019 03:00 7,9 C 6,1 C 5,3 C 87 % 1000,0 hPa 1,4 l/m 0,00 h 1,00 h 0 W/m 16,7 km/h (3 Bft) 99,21 %
10.02.2019 04:00 7,0 C 5,6 C 5,0 C 92 % 997,7 hPa 2,4 l/m 0,00 h 1,00 h 0 W/m 20,1 km/h (4 Bft) 96,89 %
10.02.2019 05:00 6,5 C 5,6 C 5,0 C 95 % 995,5 hPa 3,0 l/m 0,00 h 1,00 h 0 W/m 26,1 km/h (4 Bft) 96,40 %
10.02.2019 06:00 6,4 C 5,6 C 5,0 C 96 % 993,4 hPa 1,6 l/m 0,00 h 1,00 h 0 W/m 27,7 km/h (4 Bft) 99,43 %
10.02.2019 07:00 6,8 C 6,0 C 5,5 C 97 % 991,5 hPa 2,6 l/m 0,00 h 1,00 h 0 W/m 21,5 km/h (4 Bft) 96,95 %
10.02.2019 08:00 7,9 C 7,2 C 6,7 C 98 % 990,0 hPa 0,2 l/m 0,00 h 1,00 h 8 W/m 27,5 km/h (4 Bft) 95,74 %
10.02.2019 09:00 9,3 C 8,4 C 7,6 C 96 % 989,2 hPa 0,0 l/m 0,00 h 0,23 h 38 W/m 34,9 km/h (5 Bft) 97,82 %
10.02.2019 10:00 9,9 C 8,2 C 7,5 C 92 % 988,5 hPa 2,0 l/m 0,00 h 0,90 h 29 W/m 35,1 km/h (5 Bft) 98,29 %
10.02.2019 11:00 9,2 C 7,9 C 7,4 C 95 % 988,2 hPa 2,4 l/m 0,00 h 0,93 h 49 W/m 23,9 km/h (4 Bft) 95,57 %
10.02.2019 12:00 9,1 C 7,9 C 7,5 C 96 % 988,1 hPa 0,6 l/m 0,00 h 1,00 h 83 W/m 28,1 km/h (4 Bft) 97,88 %
10.02.2019 13:00 8,3 C 6,9 C 6,5 C 94 % 988,4 hPa 0,4 l/m 0,00 h 1,00 h 76 W/m 21,5 km/h (4 Bft) 99,06 %
10.02.2019 14:00 8,2 C 7,5 C 6,9 C 95 % 988,4 hPa 0,0 l/m 0,20 h 0,37 h 107 W/m 20,8 km/h (4 Bft) 94,38 %
10.02.2019 15:00 8,0 C 6,6 C 6,2 C 93 % 988,5 hPa 0,8 l/m 0,00 h 0,70 h 36 W/m 18,8 km/h (3 Bft) 98,36 %
10.02.2019 16:00 7,4 C 6,1 C 5,6 C 94 % 988,9 hPa 0,2 l/m 0,03 h 1,00 h 26 W/m 21,6 km/h (4 Bft) 96,37 %
10.02.2019 17:00 6,6 C 5,2 C 4,8 C 94 % 989,8 hPa 0,8 l/m 0,00 h 0,80 h 3 W/m 19,6 km/h (3 Bft) 94,17 %
10.02.2019 18:00 6,0 C 4,8 C 4,3 C 95 % 990,8 hPa 0,6 l/m 0,00 h 1,00 h 0 W/m 22,9 km/h (4 Bft) 99,04 %
10.02.2019 19:00 5,6 C 4,4 C 3,9 C 95 % 992,2 hPa 0,6 l/m 0,00 h 1,00 h 0 W/m 22,8 km/h (4 Bft) 97,73 %
10.02.2019 20:00 4,8 C 3,6 C 3,3 C 95 % 993,9 hPa 1,2 l/m 0,00 h 1,00 h 0 W/m 27,4 km/h (4 Bft) 96,08 %
10.02.2019 21:00 3,9 C 2,9 C 2,5 C 96 % 995,9 hPa 1,2 l/m 0,00 h 1,00 h 0 W/m 27,9 km/h (4 Bft) 97,79 %
10.02.2019 22:00 3,1 C 2,2 C 1,9 C 96 % 998,4 hPa 1,8 l/m 0,00 h 1,00 h 0 W/m 29,1 km/h (5 Bft) 97,89 %
10.02.2019 23:00 3,1 C 2,4 C 2,1 C 97 % 1000,5 hPa 1,4 l/m 0,00 h 1,00 h 0 W/m 24,6 km/h (4 Bft) 97,41 %
Min-Datum _ 04.02.19 04.02.19 04.02.19 04.02.19 10.02.19 - - - - 04.02.19 07.02.19
_ Min-Zeit 07:08 03:52 03:46 13:44 11:32 - - - - 00:00 00:02
Minimum _ -1,4 C -1,7 C -2,2 C 69 % 988,0 hPa - - - - 0,0 km/h (0 Bft) 13,33 %
Max-Datum _ 07.02.19 07.02.19 07.02.19 10.02.19 05.02.19 10.02.19 04.02.19 07.02.19 09.02.19 09.02.19 04.02.19
_ Max-Zeit 14:32 12:20 12:44 07:48 11:22 05:00 12:08 05:15 13:08 12:18 00:40
Maximum _ 10,5 C 13,9 C 11,7 C 98 % 1026,1 hPa 3,0 l/m 0,07 h 0,08 h 487 W/m 67,6 km/h
S-SO (8 Bft)
100,00 %
Durchschnitt _ 5,8 C 5,2 C 4,5 C 87 % 1011,5 hPa #36,4 l/m #11:30 h #41:04 h 90 W/m 18,4 km/h (3 Bft) 97,33 %
© 2019 W. Hausmann